sensor_id;sensor_type;location;lat;lon;timestamp;P1;durP1;ratioP1;P2;durP2;ratioP2
77451;SDS011;66537;52.370;4.832;2023-06-14T00:01:32;8.48;;;2.85;;
77451;SDS011;66537;52.370;4.832;2023-06-14T00:03:59;9.45;;;2.88;;
77451;SDS011;66537;52.370;4.832;2023-06-14T00:06:26;10.82;;;3.28;;
77451;SDS011;66537;52.370;4.832;2023-06-14T00:08:52;10.13;;;2.78;;
77451;SDS011;66537;52.370;4.832;2023-06-14T00:11:19;6.40;;;2.50;;
77451;SDS011;66537;52.370;4.832;2023-06-14T00:13:44;11.90;;;2.92;;
77451;SDS011;66537;52.370;4.832;2023-06-14T00:16:10;10.80;;;3.17;;
77451;SDS011;66537;52.370;4.832;2023-06-14T00:18:36;7.60;;;2.45;;
77451;SDS011;66537;52.370;4.832;2023-06-14T00:21:02;8.65;;;2.70;;
77451;SDS011;66537;52.370;4.832;2023-06-14T00:23:28;9.82;;;2.70;;
77451;SDS011;66537;52.370;4.832;2023-06-14T00:25:54;15.45;;;2.80;;
77451;SDS011;66537;52.370;4.832;2023-06-14T00:28:20;9.35;;;2.60;;
77451;SDS011;66537;52.370;4.832;2023-06-14T00:30:45;6.97;;;2.63;;
77451;SDS011;66537;52.370;4.832;2023-06-14T00:33:11;12.02;;;3.10;;
77451;SDS011;66537;52.370;4.832;2023-06-14T00:35:36;7.55;;;2.60;;
77451;SDS011;66537;52.370;4.832;2023-06-14T00:38:02;8.43;;;2.67;;
77451;SDS011;66537;52.370;4.832;2023-06-14T00:40:27;11.82;;;3.00;;
77451;SDS011;66537;52.370;4.832;2023-06-14T00:42:52;8.90;;;2.70;;
77451;SDS011;66537;52.370;4.832;2023-06-14T00:45:18;8.63;;;2.45;;
77451;SDS011;66537;52.370;4.832;2023-06-14T00:47:43;8.27;;;2.30;;
77451;SDS011;66537;52.370;4.832;2023-06-14T00:50:10;10.43;;;2.40;;
77451;SDS011;66537;52.370;4.832;2023-06-14T00:52:38;7.50;;;2.35;;
77451;SDS011;66537;52.370;4.832;2023-06-14T00:55:04;9.82;;;2.70;;
77451;SDS011;66537;52.370;4.832;2023-06-14T00:57:30;9.40;;;2.30;;
77451;SDS011;66537;52.370;4.832;2023-06-14T00:59:56;13.48;;;3.03;;
77451;SDS011;66537;52.370;4.832;2023-06-14T01:02:21;7.53;;;2.30;;
77451;SDS011;66537;52.370;4.832;2023-06-14T01:04:47;7.70;;;2.57;;
77451;SDS011;66537;52.370;4.832;2023-06-14T01:12:39;8.38;;;2.42;;
77451;SDS011;66537;52.370;4.832;2023-06-14T01:15:15;10.93;;;3.10;;
77451;SDS011;66537;52.370;4.832;2023-06-14T01:17:41;8.27;;;2.20;;
77451;SDS011;66537;52.370;4.832;2023-06-14T01:20:10;7.93;;;2.40;;
77451;SDS011;66537;52.370;4.832;2023-06-14T01:22:48;8.32;;;2.80;;
77451;SDS011;66537;52.370;4.832;2023-06-14T01:25:16;7.85;;;2.28;;
77451;SDS011;66537;52.370;4.832;2023-06-14T01:27:41;8.63;;;2.38;;
77451;SDS011;66537;52.370;4.832;2023-06-14T01:30:07;9.43;;;2.60;;
77451;SDS011;66537;52.370;4.832;2023-06-14T01:32:34;8.90;;;2.30;;
77451;SDS011;66537;52.370;4.832;2023-06-14T01:35:00;8.98;;;2.63;;
77451;SDS011;66537;52.370;4.832;2023-06-14T01:37:26;7.10;;;2.28;;
77451;SDS011;66537;52.370;4.832;2023-06-14T01:39:52;6.80;;;2.40;;
77451;SDS011;66537;52.370;4.832;2023-06-14T01:42:18;7.22;;;2.30;;
77451;SDS011;66537;52.370;4.832;2023-06-14T01:44:45;7.78;;;2.40;;
77451;SDS011;66537;52.370;4.832;2023-06-14T01:47:12;8.00;;;2.30;;
77451;SDS011;66537;52.370;4.832;2023-06-14T01:49:39;8.85;;;2.45;;
77451;SDS011;66537;52.370;4.832;2023-06-14T01:52:05;8.15;;;2.92;;
77451;SDS011;66537;52.370;4.832;2023-06-14T01:54:31;7.82;;;1.70;;
77451;SDS011;66537;52.370;4.832;2023-06-14T01:56:56;9.32;;;2.47;;
77451;SDS011;66537;52.370;4.832;2023-06-14T01:59:22;10.73;;;2.20;;
77451;SDS011;66537;52.370;4.832;2023-06-14T02:01:47;11.77;;;2.17;;
77451;SDS011;66537;52.370;4.832;2023-06-14T02:04:12;9.50;;;2.30;;
77451;SDS011;66537;52.370;4.832;2023-06-14T02:06:38;8.65;;;2.22;;
77451;SDS011;66537;52.370;4.832;2023-06-14T02:09:03;6.88;;;2.80;;
77451;SDS011;66537;52.370;4.832;2023-06-14T02:11:29;10.63;;;2.97;;
77451;SDS011;66537;52.370;4.832;2023-06-14T02:13:54;9.93;;;2.10;;
77451;SDS011;66537;52.370;4.832;2023-06-14T02:16:20;6.45;;;2.10;;
77451;SDS011;66537;52.370;4.832;2023-06-14T02:18:45;8.50;;;2.03;;
77451;SDS011;66537;52.370;4.832;2023-06-14T02:21:11;7.25;;;2.15;;
77451;SDS011;66537;52.370;4.832;2023-06-14T02:23:36;8.20;;;2.40;;
77451;SDS011;66537;52.370;4.832;2023-06-14T02:26:02;8.50;;;2.35;;
77451;SDS011;66537;52.370;4.832;2023-06-14T02:28:27;9.65;;;1.92;;
77451;SDS011;66537;52.370;4.832;2023-06-14T02:30:53;8.57;;;2.60;;
77451;SDS011;66537;52.370;4.832;2023-06-14T02:33:18;11.47;;;2.30;;
77451;SDS011;66537;52.370;4.832;2023-06-14T02:35:43;6.00;;;1.50;;
77451;SDS011;66537;52.370;4.832;2023-06-14T02:38:09;8.73;;;2.33;;
77451;SDS011;66537;52.370;4.832;2023-06-14T02:40:34;8.40;;;1.80;;
77451;SDS011;66537;52.370;4.832;2023-06-14T02:43:00;5.18;;;1.85;;
77451;SDS011;66537;52.370;4.832;2023-06-14T02:45:26;7.50;;;1.92;;
77451;SDS011;66537;52.370;4.832;2023-06-14T02:47:52;7.82;;;2.33;;
77451;SDS011;66537;52.370;4.832;2023-06-14T02:50:17;9.20;;;2.22;;
77451;SDS011;66537;52.370;4.832;2023-06-14T02:52:43;5.43;;;1.65;;
77451;SDS011;66537;52.370;4.832;2023-06-14T02:55:09;8.10;;;2.10;;
77451;SDS011;66537;52.370;4.832;2023-06-14T02:57:35;7.50;;;2.30;;
77451;SDS011;66537;52.370;4.832;2023-06-14T03:00:00;12.73;;;2.10;;
77451;SDS011;66537;52.370;4.832;2023-06-14T03:02:26;5.82;;;1.92;;
77451;SDS011;66537;52.370;4.832;2023-06-14T03:04:51;10.80;;;2.13;;
77451;SDS011;66537;52.370;4.832;2023-06-14T03:07:16;7.85;;;2.40;;
77451;SDS011;66537;52.370;4.832;2023-06-14T03:09:44;9.02;;;2.10;;
77451;SDS011;66537;52.370;4.832;2023-06-14T03:12:10;6.82;;;2.05;;
77451;SDS011;66537;52.370;4.832;2023-06-14T03:14:36;5.57;;;2.05;;
77451;SDS011;66537;52.370;4.832;2023-06-14T03:17:04;7.63;;;2.08;;
77451;SDS011;66537;52.370;4.832;2023-06-14T03:19:29;6.03;;;1.73;;
77451;SDS011;66537;52.370;4.832;2023-06-14T03:21:55;9.75;;;2.55;;
77451;SDS011;66537;52.370;4.832;2023-06-14T03:24:23;7.40;;;1.77;;
77451;SDS011;66537;52.370;4.832;2023-06-14T03:26:49;17.17;;;2.40;;
77451;SDS011;66537;52.370;4.832;2023-06-14T03:29:14;7.95;;;2.20;;
77451;SDS011;66537;52.370;4.832;2023-06-14T03:31:56;9.90;;;2.40;;
77451;SDS011;66537;52.370;4.832;2023-06-14T03:34:23;7.65;;;1.90;;
77451;SDS011;66537;52.370;4.832;2023-06-14T03:36:48;9.63;;;1.90;;
77451;SDS011;66537;52.370;4.832;2023-06-14T03:39:14;7.05;;;1.90;;
77451;SDS011;66537;52.370;4.832;2023-06-14T03:41:39;10.18;;;2.00;;
77451;SDS011;66537;52.370;4.832;2023-06-14T03:44:05;8.43;;;2.37;;
77451;SDS011;66537;52.370;4.832;2023-06-14T03:46:30;6.90;;;2.20;;
77451;SDS011;66537;52.370;4.832;2023-06-14T03:48:56;7.93;;;1.90;;
77451;SDS011;66537;52.370;4.832;2023-06-14T03:51:22;6.65;;;1.88;;
77451;SDS011;66537;52.370;4.832;2023-06-14T03:53:47;6.93;;;2.10;;
77451;SDS011;66537;52.370;4.832;2023-06-14T03:56:13;9.45;;;2.00;;
77451;SDS011;66537;52.370;4.832;2023-06-14T03:58:38;9.32;;;1.88;;
77451;SDS011;66537;52.370;4.832;2023-06-14T04:01:03;8.15;;;2.10;;
77451;SDS011;66537;52.370;4.832;2023-06-14T04:03:29;7.97;;;1.98;;
77451;SDS011;66537;52.370;4.832;2023-06-14T04:05:54;9.70;;;2.88;;
77451;SDS011;66537;52.370;4.832;2023-06-14T04:08:21;8.43;;;1.80;;
77451;SDS011;66537;52.370;4.832;2023-06-14T04:10:47;6.85;;;2.08;;
77451;SDS011;66537;52.370;4.832;2023-06-14T04:13:12;6.78;;;1.90;;
77451;SDS011;66537;52.370;4.832;2023-06-14T04:15:38;6.43;;;1.88;;
77451;SDS011;66537;52.370;4.832;2023-06-14T04:18:07;7.05;;;1.75;;
77451;SDS011;66537;52.370;4.832;2023-06-14T04:20:33;8.30;;;1.85;;
77451;SDS011;66537;52.370;4.832;2023-06-14T04:23:10;9.95;;;2.50;;
77451;SDS011;66537;52.370;4.832;2023-06-14T04:25:37;7.60;;;1.75;;
77451;SDS011;66537;52.370;4.832;2023-06-14T04:28:02;6.53;;;2.45;;
77451;SDS011;66537;52.370;4.832;2023-06-14T04:30:28;9.25;;;1.95;;
77451;SDS011;66537;52.370;4.832;2023-06-14T04:32:56;8.07;;;2.40;;
77451;SDS011;66537;52.370;4.832;2023-06-14T04:35:22;6.63;;;1.75;;
77451;SDS011;66537;52.370;4.832;2023-06-14T04:37:49;7.60;;;1.90;;
77451;SDS011;66537;52.370;4.832;2023-06-14T04:40:14;8.35;;;2.25;;
77451;SDS011;66537;52.370;4.832;2023-06-14T04:42:40;6.13;;;2.15;;
77451;SDS011;66537;52.370;4.832;2023-06-14T04:45:06;8.32;;;1.83;;
77451;SDS011;66537;52.370;4.832;2023-06-14T04:47:32;8.27;;;2.47;;
77451;SDS011;66537;52.370;4.832;2023-06-14T04:49:59;7.38;;;1.92;;
77451;SDS011;66537;52.370;4.832;2023-06-14T04:52:25;9.88;;;2.00;;
77451;SDS011;66537;52.370;4.832;2023-06-14T04:54:51;7.10;;;1.77;;
77451;SDS011;66537;52.370;4.832;2023-06-14T04:57:19;6.95;;;2.00;;
77451;SDS011;66537;52.370;4.832;2023-06-14T04:59:47;5.68;;;1.80;;
77451;SDS011;66537;52.370;4.832;2023-06-14T05:02:12;7.45;;;1.90;;
77451;SDS011;66537;52.370;4.832;2023-06-14T05:04:38;6.35;;;1.92;;
77451;SDS011;66537;52.370;4.832;2023-06-14T05:07:05;5.68;;;2.03;;
77451;SDS011;66537;52.370;4.832;2023-06-14T05:09:32;7.07;;;1.85;;
77451;SDS011;66537;52.370;4.832;2023-06-14T05:11:58;6.28;;;2.10;;
77451;SDS011;66537;52.370;4.832;2023-06-14T05:14:25;7.30;;;1.73;;
77451;SDS011;66537;52.370;4.832;2023-06-14T05:16:50;7.53;;;2.10;;
77451;SDS011;66537;52.370;4.832;2023-06-14T05:19:16;5.60;;;2.17;;
77451;SDS011;66537;52.370;4.832;2023-06-14T05:21:42;7.30;;;2.58;;
77451;SDS011;66537;52.370;4.832;2023-06-14T05:24:08;8.90;;;2.05;;
77451;SDS011;66537;52.370;4.832;2023-06-14T05:26:34;8.35;;;2.08;;
77451;SDS011;66537;52.370;4.832;2023-06-14T05:29:00;6.78;;;2.30;;
77451;SDS011;66537;52.370;4.832;2023-06-14T05:31:26;8.23;;;2.35;;
77451;SDS011;66537;52.370;4.832;2023-06-14T05:33:53;7.72;;;2.00;;
77451;SDS011;66537;52.370;4.832;2023-06-14T05:36:19;7.72;;;2.47;;
77451;SDS011;66537;52.370;4.832;2023-06-14T05:38:46;7.43;;;2.17;;
77451;SDS011;66537;52.370;4.832;2023-06-14T05:41:11;6.78;;;2.13;;
77451;SDS011;66537;52.370;4.832;2023-06-14T05:43:37;6.05;;;2.38;;
77451;SDS011;66537;52.370;4.832;2023-06-14T05:46:02;7.57;;;2.35;;
77451;SDS011;66537;52.370;4.832;2023-06-14T05:48:28;8.95;;;2.25;;
77451;SDS011;66537;52.370;4.832;2023-06-14T05:50:55;8.23;;;2.40;;
77451;SDS011;66537;52.370;4.832;2023-06-14T05:53:21;6.82;;;2.63;;
77451;SDS011;66537;52.370;4.832;2023-06-14T05:55:46;5.68;;;2.15;;
77451;SDS011;66537;52.370;4.832;2023-06-14T05:58:11;10.57;;;3.27;;
77451;SDS011;66537;52.370;4.832;2023-06-14T06:00:38;7.75;;;2.20;;
77451;SDS011;66537;52.370;4.832;2023-06-14T06:03:04;6.72;;;2.10;;
77451;SDS011;66537;52.370;4.832;2023-06-14T06:05:29;10.15;;;2.55;;
77451;SDS011;66537;52.370;4.832;2023-06-14T06:07:55;7.28;;;2.42;;
77451;SDS011;66537;52.370;4.832;2023-06-14T06:10:21;7.00;;;2.30;;
77451;SDS011;66537;52.370;4.832;2023-06-14T06:12:46;7.80;;;2.55;;
77451;SDS011;66537;52.370;4.832;2023-06-14T06:15:13;9.20;;;2.90;;
77451;SDS011;66537;52.370;4.832;2023-06-14T06:17:39;8.85;;;2.70;;
77451;SDS011;66537;52.370;4.832;2023-06-14T06:20:05;6.38;;;2.47;;
77451;SDS011;66537;52.370;4.832;2023-06-14T06:22:33;8.50;;;2.35;;
77451;SDS011;66537;52.370;4.832;2023-06-14T06:24:59;8.88;;;2.47;;
77451;SDS011;66537;52.370;4.832;2023-06-14T06:27:25;8.25;;;2.97;;
77451;SDS011;66537;52.370;4.832;2023-06-14T06:29:50;10.18;;;3.08;;
77451;SDS011;66537;52.370;4.832;2023-06-14T06:32:16;8.65;;;3.00;;
77451;SDS011;66537;52.370;4.832;2023-06-14T06:34:42;6.60;;;2.67;;
77451;SDS011;66537;52.370;4.832;2023-06-14T06:37:07;9.18;;;3.72;;
77451;SDS011;66537;52.370;4.832;2023-06-14T06:39:33;7.83;;;2.43;;
77451;SDS011;66537;52.370;4.832;2023-06-14T06:41:58;7.47;;;2.78;;
77451;SDS011;66537;52.370;4.832;2023-06-14T06:44:24;9.50;;;2.58;;
77451;SDS011;66537;52.370;4.832;2023-06-14T06:46:49;6.70;;;3.17;;
77451;SDS011;66537;52.370;4.832;2023-06-14T06:49:14;7.80;;;2.80;;
77451;SDS011;66537;52.370;4.832;2023-06-14T06:51:43;10.85;;;3.30;;
77451;SDS011;66537;52.370;4.832;2023-06-14T06:54:09;10.80;;;3.08;;
77451;SDS011;66537;52.370;4.832;2023-06-14T06:56:35;7.13;;;2.40;;
77451;SDS011;66537;52.370;4.832;2023-06-14T06:59:01;8.05;;;2.70;;
77451;SDS011;66537;52.370;4.832;2023-06-14T07:01:26;7.72;;;3.00;;
77451;SDS011;66537;52.370;4.832;2023-06-14T07:03:54;7.88;;;3.00;;
77451;SDS011;66537;52.370;4.832;2023-06-14T07:06:20;9.15;;;2.85;;
77451;SDS011;66537;52.370;4.832;2023-06-14T07:08:45;11.20;;;2.55;;
77451;SDS011;66537;52.370;4.832;2023-06-14T07:11:13;9.63;;;2.63;;
77451;SDS011;66537;52.370;4.832;2023-06-14T07:13:38;6.88;;;2.72;;
77451;SDS011;66537;52.370;4.832;2023-06-14T07:16:04;6.50;;;3.53;;
77451;SDS011;66537;52.370;4.832;2023-06-14T07:18:29;6.72;;;2.38;;
77451;SDS011;66537;52.370;4.832;2023-06-14T07:20:56;9.30;;;2.75;;
77451;SDS011;66537;52.370;4.832;2023-06-14T07:23:22;11.18;;;2.60;;
77451;SDS011;66537;52.370;4.832;2023-06-14T07:25:48;9.10;;;2.85;;
77451;SDS011;66537;52.370;4.832;2023-06-14T07:28:13;9.15;;;3.17;;
77451;SDS011;66537;52.370;4.832;2023-06-14T07:30:39;7.43;;;2.72;;
77451;SDS011;66537;52.370;4.832;2023-06-14T07:33:04;4.93;;;2.47;;
77451;SDS011;66537;52.370;4.832;2023-06-14T07:35:30;8.95;;;2.72;;
77451;SDS011;66537;52.370;4.832;2023-06-14T07:37:56;8.90;;;2.80;;
77451;SDS011;66537;52.370;4.832;2023-06-14T07:40:21;6.97;;;2.90;;
77451;SDS011;66537;52.370;4.832;2023-06-14T07:42:47;8.00;;;2.88;;
77451;SDS011;66537;52.370;4.832;2023-06-14T07:45:13;9.38;;;3.88;;
77451;SDS011;66537;52.370;4.832;2023-06-14T07:47:39;7.75;;;2.75;;
77451;SDS011;66537;52.370;4.832;2023-06-14T07:50:04;9.07;;;3.60;;
77451;SDS011;66537;52.370;4.832;2023-06-14T07:52:30;10.55;;;2.60;;
77451;SDS011;66537;52.370;4.832;2023-06-14T07:54:56;11.25;;;2.67;;
77451;SDS011;66537;52.370;4.832;2023-06-14T07:57:21;8.25;;;2.72;;
77451;SDS011;66537;52.370;4.832;2023-06-14T07:59:47;9.50;;;2.90;;
77451;SDS011;66537;52.370;4.832;2023-06-14T08:02:12;8.00;;;3.20;;
77451;SDS011;66537;52.370;4.832;2023-06-14T08:04:38;7.15;;;2.78;;
77451;SDS011;66537;52.370;4.832;2023-06-14T08:07:03;7.03;;;2.88;;
77451;SDS011;66537;52.370;4.832;2023-06-14T08:09:29;8.45;;;2.95;;
77451;SDS011;66537;52.370;4.832;2023-06-14T08:11:55;9.82;;;2.88;;
77451;SDS011;66537;52.370;4.832;2023-06-14T08:14:21;8.75;;;2.63;;
77451;SDS011;66537;52.370;4.832;2023-06-14T08:16:47;10.48;;;3.03;;
77451;SDS011;66537;52.370;4.832;2023-06-14T08:19:12;7.25;;;2.65;;
77451;SDS011;66537;52.370;4.832;2023-06-14T08:21:38;6.70;;;2.20;;
77451;SDS011;66537;52.370;4.832;2023-06-14T08:24:03;9.43;;;3.40;;
77451;SDS011;66537;52.370;4.832;2023-06-14T08:26:29;7.05;;;2.60;;
77451;SDS011;66537;52.370;4.832;2023-06-14T08:28:55;10.43;;;2.97;;
77451;SDS011;66537;52.370;4.832;2023-06-14T08:31:21;6.70;;;2.30;;
77451;SDS011;66537;52.370;4.832;2023-06-14T08:33:46;11.35;;;3.38;;
77451;SDS011;66537;52.370;4.832;2023-06-14T08:36:12;7.97;;;2.63;;
77451;SDS011;66537;52.370;4.832;2023-06-14T08:38:38;8.23;;;2.40;;
77451;SDS011;66537;52.370;4.832;2023-06-14T08:41:04;11.05;;;2.97;;
77451;SDS011;66537;52.370;4.832;2023-06-14T08:43:31;7.75;;;2.88;;
77451;SDS011;66537;52.370;4.832;2023-06-14T08:46:00;9.88;;;2.90;;
77451;SDS011;66537;52.370;4.832;2023-06-14T08:48:29;10.13;;;2.55;;
77451;SDS011;66537;52.370;4.832;2023-06-14T08:50:59;8.30;;;2.30;;
77451;SDS011;66537;52.370;4.832;2023-06-14T08:53:30;9.43;;;2.17;;
77451;SDS011;66537;52.370;4.832;2023-06-14T08:55:57;9.77;;;2.40;;
77451;SDS011;66537;52.370;4.832;2023-06-14T08:58:26;6.22;;;1.90;;
77451;SDS011;66537;52.370;4.832;2023-06-14T09:00:56;9.00;;;2.20;;
77451;SDS011;66537;52.370;4.832;2023-06-14T09:03:23;6.70;;;2.13;;
77451;SDS011;66537;52.370;4.832;2023-06-14T09:05:55;7.40;;;2.50;;
77451;SDS011;66537;52.370;4.832;2023-06-14T09:08:21;6.82;;;2.58;;
77451;SDS011;66537;52.370;4.832;2023-06-14T09:10:48;8.05;;;2.47;;
77451;SDS011;66537;52.370;4.832;2023-06-14T09:13:13;8.05;;;2.22;;
77451;SDS011;66537;52.370;4.832;2023-06-14T09:15:39;7.63;;;2.20;;
77451;SDS011;66537;52.370;4.832;2023-06-14T09:18:04;6.10;;;2.22;;
77451;SDS011;66537;52.370;4.832;2023-06-14T09:20:31;7.55;;;2.25;;
77451;SDS011;66537;52.370;4.832;2023-06-14T09:22:57;8.90;;;1.77;;
77451;SDS011;66537;52.370;4.832;2023-06-14T09:25:23;8.05;;;2.20;;
77451;SDS011;66537;52.370;4.832;2023-06-14T09:27:51;4.95;;;1.95;;
77451;SDS011;66537;52.370;4.832;2023-06-14T09:30:16;9.35;;;2.75;;
77451;SDS011;66537;52.370;4.832;2023-06-14T09:32:45;8.65;;;1.88;;
77451;SDS011;66537;52.370;4.832;2023-06-14T09:35:11;10.25;;;2.10;;
77451;SDS011;66537;52.370;4.832;2023-06-14T09:37:36;5.05;;;1.70;;
77451;SDS011;66537;52.370;4.832;2023-06-14T09:40:05;4.88;;;1.88;;
77451;SDS011;66537;52.370;4.832;2023-06-14T09:42:31;7.15;;;2.20;;
77451;SDS011;66537;52.370;4.832;2023-06-14T09:45:00;5.25;;;1.63;;
77451;SDS011;66537;52.370;4.832;2023-06-14T09:47:27;8.98;;;1.95;;
77451;SDS011;66537;52.370;4.832;2023-06-14T09:49:52;5.17;;;2.00;;
77451;SDS011;66537;52.370;4.832;2023-06-14T09:52:21;5.32;;;1.75;;
77451;SDS011;66537;52.370;4.832;2023-06-14T09:54:51;5.63;;;2.00;;
77451;SDS011;66537;52.370;4.832;2023-06-14T09:57:22;8.15;;;1.80;;
77451;SDS011;66537;52.370;4.832;2023-06-14T09:59:49;6.43;;;1.92;;
77451;SDS011;66537;52.370;4.832;2023-06-14T10:02:22;6.05;;;1.90;;
77451;SDS011;66537;52.370;4.832;2023-06-14T10:05:07;5.68;;;1.40;;
77451;SDS011;66537;52.370;4.832;2023-06-14T10:07:44;5.65;;;2.40;;
77451;SDS011;66537;52.370;4.832;2023-06-14T10:10:16;5.25;;;1.50;;
77451;SDS011;66537;52.370;4.832;2023-06-14T10:12:42;6.03;;;1.60;;
77451;SDS011;66537;52.370;4.832;2023-06-14T10:15:11;5.75;;;1.63;;
77451;SDS011;66537;52.370;4.832;2023-06-14T10:17:43;6.32;;;1.70;;
77451;SDS011;66537;52.370;4.832;2023-06-14T10:20:21;4.18;;;1.35;;
77451;SDS011;66537;52.370;4.832;2023-06-14T10:23:13;6.13;;;1.85;;
77451;SDS011;66537;52.370;4.832;2023-06-14T10:25:43;6.35;;;1.63;;
77451;SDS011;66537;52.370;4.832;2023-06-14T10:30:37;5.97;;;1.40;;
77451;SDS011;66537;52.370;4.832;2023-06-14T10:33:03;6.22;;;1.85;;
77451;SDS011;66537;52.370;4.832;2023-06-14T10:35:31;6.30;;;1.60;;
77451;SDS011;66537;52.370;4.832;2023-06-14T10:38:05;5.90;;;1.60;;
77451;SDS011;66537;52.370;4.832;2023-06-14T10:40:31;5.22;;;1.95;;
77451;SDS011;66537;52.370;4.832;2023-06-14T10:42:59;6.07;;;1.77;;
77451;SDS011;66537;52.370;4.832;2023-06-14T10:45:24;8.02;;;1.63;;
77451;SDS011;66537;52.370;4.832;2023-06-14T10:47:50;5.68;;;1.40;;
77451;SDS011;66537;52.370;4.832;2023-06-14T10:50:17;7.18;;;1.58;;
77451;SDS011;66537;52.370;4.832;2023-06-14T10:52:53;7.50;;;1.50;;
77451;SDS011;66537;52.370;4.832;2023-06-14T10:55:18;7.55;;;2.03;;
77451;SDS011;66537;52.370;4.832;2023-06-14T10:57:45;4.90;;;1.50;;
77451;SDS011;66537;52.370;4.832;2023-06-14T11:00:13;4.25;;;1.42;;
77451;SDS011;66537;52.370;4.832;2023-06-14T11:05:29;6.13;;;1.55;;
77451;SDS011;66537;52.370;4.832;2023-06-14T11:08:05;5.60;;;1.58;;
77451;SDS011;66537;52.370;4.832;2023-06-14T11:10:59;4.57;;;1.70;;
77451;SDS011;66537;52.370;4.832;2023-06-14T11:13:25;3.95;;;1.45;;
77451;SDS011;66537;52.370;4.832;2023-06-14T11:15:51;11.45;;;1.95;;
77451;SDS011;66537;52.370;4.832;2023-06-14T11:18:21;9.35;;;1.75;;
77451;SDS011;66537;52.370;4.832;2023-06-14T11:20:49;4.18;;;1.70;;
77451;SDS011;66537;52.370;4.832;2023-06-14T11:23:15;7.43;;;1.67;;
77451;SDS011;66537;52.370;4.832;2023-06-14T11:25:40;3.90;;;1.63;;
77451;SDS011;66537;52.370;4.832;2023-06-14T11:28:06;5.82;;;1.75;;
77451;SDS011;66537;52.370;4.832;2023-06-14T11:30:32;3.53;;;1.50;;
77451;SDS011;66537;52.370;4.832;2023-06-14T11:32:57;4.82;;;1.60;;
77451;SDS011;66537;52.370;4.832;2023-06-14T11:35:23;7.95;;;2.47;;
77451;SDS011;66537;52.370;4.832;2023-06-14T11:37:49;6.60;;;1.70;;
77451;SDS011;66537;52.370;4.832;2023-06-14T11:40:17;6.45;;;2.10;;
77451;SDS011;66537;52.370;4.832;2023-06-14T11:42:43;6.45;;;2.40;;
77451;SDS011;66537;52.370;4.832;2023-06-14T11:45:09;6.37;;;1.90;;
77451;SDS011;66537;52.370;4.832;2023-06-14T11:47:36;6.53;;;1.48;;
77451;SDS011;66537;52.370;4.832;2023-06-14T11:50:03;5.70;;;1.65;;
77451;SDS011;66537;52.370;4.832;2023-06-14T11:52:30;4.47;;;1.50;;
77451;SDS011;66537;52.370;4.832;2023-06-14T11:54:56;8.38;;;2.58;;
77451;SDS011;66537;52.370;4.832;2023-06-14T11:57:22;4.93;;;1.27;;
77451;SDS011;66537;52.370;4.832;2023-06-14T11:59:49;4.78;;;1.30;;
77451;SDS011;66537;52.370;4.832;2023-06-14T12:02:15;6.70;;;1.58;;
77451;SDS011;66537;52.370;4.832;2023-06-14T12:04:41;4.35;;;1.50;;
77451;SDS011;66537;52.370;4.832;2023-06-14T12:07:11;7.47;;;1.70;;
77451;SDS011;66537;52.370;4.832;2023-06-14T12:12:22;5.97;;;1.65;;
77451;SDS011;66537;52.370;4.832;2023-06-14T12:14:51;7.18;;;1.40;;
77451;SDS011;66537;52.370;4.832;2023-06-14T12:17:17;5.32;;;2.03;;
77451;SDS011;66537;52.370;4.832;2023-06-14T12:19:43;9.18;;;1.80;;
77451;SDS011;66537;52.370;4.832;2023-06-14T12:22:10;5.43;;;1.42;;
77451;SDS011;66537;52.370;4.832;2023-06-14T12:24:37;5.13;;;1.38;;
77451;SDS011;66537;52.370;4.832;2023-06-14T12:27:04;6.90;;;1.40;;
77451;SDS011;66537;52.370;4.832;2023-06-14T12:29:30;6.05;;;1.40;;
77451;SDS011;66537;52.370;4.832;2023-06-14T12:31:56;5.03;;;1.30;;
77451;SDS011;66537;52.370;4.832;2023-06-14T12:34:24;6.35;;;1.23;;
77451;SDS011;66537;52.370;4.832;2023-06-14T12:36:51;7.88;;;1.48;;
77451;SDS011;66537;52.370;4.832;2023-06-14T12:39:18;6.32;;;1.42;;
77451;SDS011;66537;52.370;4.832;2023-06-14T12:41:44;6.65;;;1.23;;
77451;SDS011;66537;52.370;4.832;2023-06-14T12:44:12;6.00;;;1.48;;
77451;SDS011;66537;52.370;4.832;2023-06-14T12:46:38;4.70;;;1.13;;
77451;SDS011;66537;52.370;4.832;2023-06-14T12:49:10;5.45;;;1.15;;
77451;SDS011;66537;52.370;4.832;2023-06-14T12:51:36;6.18;;;1.33;;
77451;SDS011;66537;52.370;4.832;2023-06-14T12:54:05;6.93;;;2.00;;
77451;SDS011;66537;52.370;4.832;2023-06-14T12:56:31;4.85;;;1.58;;
77451;SDS011;66537;52.370;4.832;2023-06-14T12:58:56;4.53;;;1.38;;
77451;SDS011;66537;52.370;4.832;2023-06-14T13:01:22;7.35;;;1.63;;
77451;SDS011;66537;52.370;4.832;2023-06-14T13:03:48;4.28;;;1.30;;
77451;SDS011;66537;52.370;4.832;2023-06-14T13:06:15;5.57;;;1.30;;
77451;SDS011;66537;52.370;4.832;2023-06-14T13:08:40;5.23;;;1.20;;
77451;SDS011;66537;52.370;4.832;2023-06-14T13:11:06;7.73;;;1.53;;
77451;SDS011;66537;52.370;4.832;2023-06-14T13:13:31;5.97;;;1.20;;
77451;SDS011;66537;52.370;4.832;2023-06-14T13:15:56;6.90;;;1.27;;
77451;SDS011;66537;52.370;4.832;2023-06-14T13:18:22;5.90;;;1.57;;
77451;SDS011;66537;52.370;4.832;2023-06-14T13:20:47;5.10;;;1.47;;
77451;SDS011;66537;52.370;4.832;2023-06-14T13:23:13;7.93;;;1.27;;
77451;SDS011;66537;52.370;4.832;2023-06-14T13:25:39;5.70;;;1.63;;
77451;SDS011;66537;52.370;4.832;2023-06-14T13:28:05;6.10;;;1.27;;
77451;SDS011;66537;52.370;4.832;2023-06-14T13:30:30;3.35;;;1.20;;
77451;SDS011;66537;52.370;4.832;2023-06-14T13:32:56;3.05;;;0.95;;
77451;SDS011;66537;52.370;4.832;2023-06-14T13:35:22;5.82;;;1.52;;
77451;SDS011;66537;52.370;4.832;2023-06-14T13:37:48;5.60;;;1.33;;
77451;SDS011;66537;52.370;4.832;2023-06-14T13:40:13;3.97;;;1.10;;
77451;SDS011;66537;52.370;4.832;2023-06-14T13:42:38;6.72;;;1.38;;
77451;SDS011;66537;52.370;4.832;2023-06-14T13:45:05;6.90;;;1.20;;
77451;SDS011;66537;52.370;4.832;2023-06-14T13:47:31;9.30;;;1.80;;
77451;SDS011;66537;52.370;4.832;2023-06-14T13:49:57;9.40;;;1.00;;
77451;SDS011;66537;52.370;4.832;2023-06-14T13:52:23;6.72;;;1.20;;
77451;SDS011;66537;52.370;4.832;2023-06-14T13:54:48;7.80;;;1.13;;
77451;SDS011;66537;52.370;4.832;2023-06-14T13:57:14;4.40;;;1.17;;
77451;SDS011;66537;52.370;4.832;2023-06-14T13:59:40;3.67;;;1.17;;
77451;SDS011;66537;52.370;4.832;2023-06-14T14:02:06;5.38;;;1.30;;
77451;SDS011;66537;52.370;4.832;2023-06-14T14:04:33;8.38;;;1.52;;
77451;SDS011;66537;52.370;4.832;2023-06-14T14:07:02;8.93;;;2.03;;
77451;SDS011;66537;52.370;4.832;2023-06-14T14:09:29;4.65;;;2.33;;
77451;SDS011;66537;52.370;4.832;2023-06-14T14:11:55;5.85;;;1.50;;
77451;SDS011;66537;52.370;4.832;2023-06-14T14:14:20;6.47;;;1.30;;
77451;SDS011;66537;52.370;4.832;2023-06-14T14:16:46;7.03;;;1.63;;
77451;SDS011;66537;52.370;4.832;2023-06-14T14:19:14;5.15;;;1.20;;
77451;SDS011;66537;52.370;4.832;2023-06-14T14:21:39;4.93;;;1.37;;
77451;SDS011;66537;52.370;4.832;2023-06-14T14:24:04;8.20;;;1.43;;
77451;SDS011;66537;52.370;4.832;2023-06-14T14:26:30;6.05;;;1.13;;
77451;SDS011;66537;52.370;4.832;2023-06-14T14:28:55;6.53;;;1.30;;
77451;SDS011;66537;52.370;4.832;2023-06-14T14:31:21;5.50;;;1.35;;
77451;SDS011;66537;52.370;4.832;2023-06-14T14:33:46;6.80;;;2.17;;
77451;SDS011;66537;52.370;4.832;2023-06-14T14:36:11;4.97;;;1.60;;
77451;SDS011;66537;52.370;4.832;2023-06-14T14:38:38;14.13;;;2.28;;
77451;SDS011;66537;52.370;4.832;2023-06-14T14:41:04;5.68;;;1.50;;
77451;SDS011;66537;52.370;4.832;2023-06-14T14:43:30;5.25;;;1.30;;
77451;SDS011;66537;52.370;4.832;2023-06-14T14:45:56;7.93;;;1.50;;
77451;SDS011;66537;52.370;4.832;2023-06-14T14:48:21;4.43;;;1.20;;
77451;SDS011;66537;52.370;4.832;2023-06-14T14:50:47;6.03;;;1.40;;
77451;SDS011;66537;52.370;4.832;2023-06-14T14:53:13;5.75;;;1.13;;
77451;SDS011;66537;52.370;4.832;2023-06-14T14:55:41;4.80;;;1.00;;